createdAt,value
2019-06-26T00:01:07.558Z,95820.28
2019-06-26T00:03:38.733Z,95822.48
2019-06-26T00:06:10.027Z,95818.14
2019-06-26T00:08:41.207Z,95821.53
2019-06-26T00:11:12.450Z,95822.53
2019-06-26T00:13:43.535Z,95822.16
2019-06-26T00:16:14.813Z,95820.80
2019-06-26T00:18:45.898Z,95829.36
2019-06-26T00:21:17.261Z,95840.03
2019-06-26T00:23:48.418Z,95838.63
2019-06-26T00:26:19.533Z,95837.20
2019-06-26T00:28:50.638Z,95836.39
2019-06-26T00:31:21.731Z,95835.98
2019-06-26T00:33:52.994Z,95835.16
2019-06-26T00:36:24.228Z,95839.44
2019-06-26T00:38:55.394Z,95840.45
2019-06-26T00:41:26.598Z,95839.86
2019-06-26T00:43:57.744Z,95839.86
2019-06-26T00:46:28.907Z,95843.32
2019-06-26T00:49:00.141Z,95846.97
2019-06-26T00:51:31.329Z,95845.33
2019-06-26T00:54:02.578Z,95844.97
2019-06-26T00:56:33.776Z,95852.73
2019-06-26T00:59:05.125Z,95845.98
2019-06-26T01:01:36.297Z,95844.94
2019-06-26T01:04:13.352Z,95834.92
2019-06-26T01:06:44.433Z,95841.61
2019-06-26T01:09:16.301Z,95833.63
2019-06-26T01:11:47.370Z,95840.00
2019-06-26T01:14:19.650Z,95838.41
2019-06-26T01:16:50.828Z,95840.48
2019-06-26T01:19:22.053Z,95839.83
2019-06-26T01:21:53.303Z,95838.61
2019-06-26T01:24:24.519Z,95839.66
2019-06-26T01:26:55.801Z,95843.73
2019-06-26T01:29:26.890Z,95837.41
2019-06-26T01:31:57.969Z,95847.41
2019-06-26T01:34:29.109Z,95842.73
2019-06-26T01:37:00.281Z,95835.16
2019-06-26T01:39:31.364Z,95829.36
2019-06-26T01:42:02.648Z,95839.25
2019-06-26T01:44:33.919Z,95839.86
2019-06-26T01:47:05.545Z,95841.07
2019-06-26T01:49:37.770Z,95838.02
2019-06-26T01:52:09.057Z,95841.08
2019-06-26T01:54:40.260Z,95847.42
2019-06-26T01:57:11.490Z,95843.54
2019-06-26T01:59:42.688Z,95840.88
2019-06-26T02:02:13.905Z,95846.20
2019-06-26T02:04:45.045Z,95845.16
2019-06-26T02:07:16.347Z,95843.73
2019-06-26T02:09:47.577Z,95847.61
2019-06-26T02:12:18.657Z,95850.66
2019-06-26T02:14:49.851Z,95848.63
2019-06-26T02:17:21.066Z,95853.81
2019-06-26T02:19:52.118Z,95846.88
2019-06-26T02:22:23.351Z,95851.39
2019-06-26T02:24:54.566Z,95852.62
2019-06-26T02:27:25.846Z,95859.72
2019-06-26T02:29:56.933Z,95858.84
2019-06-26T02:32:28.120Z,95853.10
2019-06-26T02:35:00.353Z,95859.80
2019-06-26T02:37:31.691Z,95866.23
2019-06-26T02:40:02.891Z,95867.02
2019-06-26T02:42:34.348Z,95867.73
2019-06-26T02:45:07.311Z,95865.27
2019-06-26T02:47:45.371Z,95868.91
2019-06-26T02:50:16.606Z,95864.18
2019-06-26T02:52:47.677Z,95868.67
2019-06-26T02:55:18.882Z,95869.26
2019-06-26T02:57:50.048Z,95867.77
2019-06-26T03:00:21.249Z,95868.14
2019-06-26T03:02:52.417Z,95862.41
2019-06-26T03:05:23.481Z,95870.41
2019-06-26T03:07:54.751Z,95862.68
2019-06-26T03:10:26.053Z,95870.83
2019-06-26T03:12:57.342Z,95864.91
2019-06-26T03:15:28.602Z,95864.88
2019-06-26T03:17:59.747Z,95856.23
2019-06-26T03:20:35.912Z,95864.06
2019-06-26T03:23:07.131Z,95862.55
2019-06-26T03:25:38.182Z,95862.53
2019-06-26T03:28:09.412Z,95861.60
2019-06-26T03:30:40.575Z,95861.77
2019-06-26T03:33:11.791Z,95864.63
2019-06-26T03:35:42.863Z,95867.20
2019-06-26T03:38:14.031Z,95858.45
2019-06-26T03:40:45.258Z,95872.27
2019-06-26T03:43:16.474Z,95869.97
2019-06-26T03:45:47.845Z,95862.56
2019-06-26T03:48:19.154Z,95872.11
2019-06-26T03:50:50.293Z,95878.68
2019-06-26T03:53:21.381Z,95863.40
2019-06-26T03:55:52.519Z,95873.84
2019-06-26T03:58:23.670Z,95873.67
2019-06-26T04:00:54.760Z,95879.72
2019-06-26T04:03:25.941Z,95879.78
2019-06-26T04:05:57.276Z,95874.64
2019-06-26T04:08:28.435Z,95875.70
2019-06-26T04:10:59.578Z,95888.89
2019-06-26T04:13:31.030Z,95885.22
2019-06-26T04:16:02.260Z,95885.05
2019-06-26T04:18:33.338Z,95886.48
2019-06-26T04:21:04.508Z,95882.63
2019-06-26T04:23:35.712Z,95883.48
2019-06-26T04:26:06.927Z,95885.61
2019-06-26T04:28:38.090Z,95880.43
2019-06-26T04:31:09.320Z,95890.90
2019-06-26T04:33:40.382Z,95882.75
2019-06-26T04:36:11.459Z,95886.23
2019-06-26T04:38:42.513Z,95890.73
2019-06-26T04:41:13.797Z,95889.72
2019-06-26T04:43:44.890Z,95893.59
2019-06-26T04:46:16.033Z,95900.54
2019-06-26T04:48:47.153Z,95891.15
2019-06-26T04:51:18.258Z,95889.92
2019-06-26T04:53:49.399Z,95886.64
2019-06-26T04:56:20.554Z,95896.87
2019-06-26T04:58:51.771Z,95897.45
2019-06-26T05:01:23.008Z,95893.91
2019-06-26T05:03:54.077Z,95898.81
2019-06-26T05:06:25.237Z,95890.61
2019-06-26T05:08:56.452Z,95890.61
2019-06-26T05:11:27.666Z,95893.62
2019-06-26T05:13:58.746Z,95890.53
2019-06-26T05:16:29.913Z,95893.99
2019-06-26T05:19:00.970Z,95897.33
2019-06-26T05:21:33.284Z,95900.97
2019-06-26T05:24:04.348Z,95896.77
2019-06-26T05:26:35.605Z,95900.58
2019-06-26T05:29:07.054Z,95900.77
2019-06-26T05:31:38.288Z,95900.71
2019-06-26T05:34:11.104Z,95902.50
2019-06-26T05:36:42.582Z,95898.39
2019-06-26T05:39:13.688Z,95901.09
2019-06-26T05:41:44.903Z,95896.92
2019-06-26T05:44:16.030Z,95902.02
2019-06-26T05:46:47.096Z,95892.64
2019-06-26T05:49:18.257Z,95892.53
2019-06-26T05:51:49.420Z,95911.25
2019-06-26T05:54:20.550Z,95902.37
2019-06-26T05:56:51.791Z,95905.16
2019-06-26T05:59:23.079Z,95911.05
2019-06-26T06:01:54.497Z,95915.41
2019-06-26T06:04:25.757Z,95916.98
2019-06-26T06:06:56.969Z,95915.75
2019-06-26T06:09:28.249Z,95932.25
2019-06-26T06:11:59.415Z,95926.03
2019-06-26T06:14:30.624Z,95927.85
2019-06-26T06:17:02.858Z,95932.03
2019-06-26T06:19:33.905Z,95929.13
2019-06-26T06:22:05.071Z,95937.06
2019-06-26T06:24:36.121Z,95922.59
2019-06-26T06:27:10.851Z,95927.70
2019-06-26T06:29:42.067Z,95925.95
2019-06-26T06:32:13.429Z,95927.16
2019-06-26T06:34:44.535Z,95918.17
2019-06-26T06:37:16.699Z,95924.61
2019-06-26T06:39:47.839Z,95924.20
2019-06-26T06:42:18.963Z,95931.30
2019-06-26T06:44:50.020Z,95937.02
2019-06-26T06:47:25.184Z,95944.39
2019-06-26T06:49:56.221Z,95933.68
2019-06-26T06:52:27.305Z,95935.36
2019-06-26T06:54:58.345Z,95933.44
2019-06-26T06:57:29.433Z,95942.30
2019-06-26T07:00:00.879Z,95935.45
2019-06-26T07:02:33.738Z,95940.45
2019-06-26T07:05:06.549Z,95941.56
2019-06-26T07:07:37.779Z,95943.45
2019-06-26T07:10:09.555Z,95937.98
2019-06-26T07:12:40.768Z,95939.31
2019-06-26T07:15:13.602Z,95938.89
2019-06-26T07:17:44.657Z,95946.17
2019-06-26T07:20:16.209Z,95935.78
2019-06-26T07:22:47.333Z,95946.91
2019-06-26T07:25:18.900Z,95951.27
2019-06-26T07:27:50.042Z,95948.05
2019-06-26T07:30:22.078Z,95946.95
2019-06-26T07:32:53.475Z,95950.75
2019-06-26T07:35:24.497Z,95948.06
2019-06-26T07:37:55.592Z,95958.08
2019-06-26T07:40:26.711Z,95954.00
2019-06-26T07:42:58.846Z,95951.78
2019-06-26T07:45:29.891Z,95951.13
2019-06-26T07:48:00.940Z,95953.70
2019-06-26T07:50:32.701Z,95957.25
2019-06-26T07:53:04.886Z,95953.45
2019-06-26T07:55:35.960Z,95959.02
2019-06-26T07:58:07.171Z,95960.03
2019-06-26T08:00:38.206Z,95955.72
2019-06-26T08:03:09.346Z,95965.26
2019-06-26T08:05:42.869Z,95966.63
2019-06-26T08:08:14.766Z,95957.38
2019-06-26T08:10:46.055Z,95965.88
2019-06-26T08:13:17.147Z,95960.03
2019-06-26T08:15:48.272Z,95972.09
2019-06-26T08:18:19.356Z,95964.47
2019-06-26T08:21:07.474Z,95963.23
2019-06-26T08:23:23.359Z,95973.01
2019-06-26T08:25:54.392Z,95966.18
2019-06-26T08:28:26.609Z,95973.55
2019-06-26T08:30:57.712Z,95975.30
2019-06-26T08:33:28.934Z,95979.04
2019-06-26T08:36:00.120Z,95977.20
2019-06-26T08:38:31.258Z,95971.11
2019-06-26T08:41:02.405Z,95970.69
2019-06-26T08:43:33.845Z,95971.28
2019-06-26T08:46:05.050Z,95975.27
2019-06-26T08:48:40.214Z,95965.98
2019-06-26T08:51:08.851Z,95967.94
2019-06-26T08:53:39.944Z,95967.34
2019-06-26T08:56:10.978Z,95970.77
2019-06-26T08:58:42.346Z,95968.05
2019-06-26T09:01:14.200Z,95966.44
2019-06-26T09:03:45.369Z,95971.89
2019-06-26T09:06:16.492Z,95967.28
2019-06-26T09:08:47.610Z,95970.95
2019-06-26T09:11:18.652Z,95964.88
2019-06-26T09:13:49.735Z,95973.36
2019-06-26T09:16:20.814Z,95969.53
2019-06-26T09:18:51.930Z,95970.38
2019-06-26T09:21:23.045Z,95967.16
2019-06-26T09:23:54.118Z,95976.22
2019-06-26T09:26:25.265Z,95973.55
2019-06-26T09:28:56.346Z,95974.98
2019-06-26T09:31:27.386Z,95971.66
2019-06-26T09:33:58.477Z,95977.55
2019-06-26T09:36:29.494Z,95973.58
2019-06-26T09:39:00.577Z,95972.89
2019-06-26T09:41:33.472Z,95974.09
2019-06-26T09:44:04.647Z,95978.09
2019-06-26T09:46:35.828Z,95972.22
2019-06-26T09:49:07.086Z,95981.28
2019-06-26T09:51:38.110Z,95974.26
2019-06-26T09:54:10.135Z,95980.36
2019-06-26T09:56:41.188Z,95986.02
2019-06-26T09:59:12.246Z,95978.17
2019-06-26T10:01:43.363Z,95982.64
2019-06-26T10:04:14.555Z,95981.55
2019-06-26T10:06:45.646Z,95987.61
2019-06-26T10:09:16.804Z,95978.81
2019-06-26T10:11:47.849Z,95974.39
2019-06-26T10:14:19.087Z,95975.66
2019-06-26T10:16:50.266Z,95979.39
2019-06-26T10:19:21.815Z,95978.22
2019-06-26T10:21:53.177Z,95969.23
2019-06-26T10:24:24.444Z,95971.48
2019-06-26T10:26:55.662Z,95975.09
2019-06-26T10:29:26.700Z,95970.66
2019-06-26T10:31:57.750Z,95975.67
2019-06-26T10:34:28.827Z,95968.22
2019-06-26T10:37:01.037Z,95967.27
2019-06-26T10:39:32.182Z,95966.39
2019-06-26T10:42:03.347Z,95971.88
2019-06-26T10:44:34.686Z,95970.23
2019-06-26T10:47:06.024Z,95967.88
2019-06-26T10:49:37.335Z,95972.27
2019-06-26T10:52:08.619Z,95967.95
2019-06-26T10:54:39.724Z,95960.25
2019-06-26T10:57:10.970Z,95966.77
2019-06-26T10:59:42.150Z,95964.88
2019-06-26T11:02:16.721Z,95966.74
2019-06-26T11:04:46.088Z,95962.74
2019-06-26T11:07:17.251Z,95956.66
2019-06-26T11:09:48.317Z,95959.71
2019-06-26T11:12:19.384Z,95958.83
2019-06-26T11:14:50.466Z,95959.45
2019-06-26T11:17:21.674Z,95965.04
2019-06-26T11:19:55.438Z,95954.27
2019-06-26T11:22:25.627Z,95953.97
2019-06-26T11:24:56.808Z,95946.71
2019-06-26T11:27:27.950Z,95941.84
2019-06-26T11:29:59.159Z,95952.60
2019-06-26T11:32:30.599Z,95953.87
2019-06-26T11:35:01.768Z,95947.56
2019-06-26T11:37:32.876Z,95943.65
2019-06-26T11:40:04.153Z,95949.79
2019-06-26T11:42:35.279Z,95950.33
2019-06-26T11:45:07.449Z,95947.43
2019-06-26T11:47:38.614Z,95942.00
2019-06-26T11:50:12.483Z,95936.74
2019-06-26T11:52:43.633Z,95948.05
2019-06-26T11:55:16.151Z,95937.20
2019-06-26T11:57:47.386Z,95939.37
2019-06-26T12:00:19.499Z,95938.68
2019-06-26T12:02:50.779Z,95931.64
2019-06-26T12:05:22.270Z,95943.91
2019-06-26T12:07:53.387Z,95925.77
2019-06-26T12:10:24.600Z,95930.32
2019-06-26T12:12:55.879Z,95929.14
2019-06-26T12:15:28.245Z,95923.05
2019-06-26T12:17:59.431Z,95924.67
2019-06-26T12:20:30.568Z,95924.95
2019-06-26T12:23:01.670Z,95917.65
2019-06-26T12:25:32.764Z,95917.80
2019-06-26T12:28:03.880Z,95916.77
2019-06-26T12:30:35.046Z,95913.72
2019-06-26T12:33:06.230Z,95912.95
2019-06-26T12:35:37.393Z,95920.84
2019-06-26T12:38:08.526Z,95918.73
2019-06-26T12:40:39.596Z,95912.78
2019-06-26T12:43:10.655Z,95909.44
2019-06-26T12:45:41.818Z,95903.62
2019-06-26T12:48:16.154Z,95906.03
2019-06-26T12:50:45.965Z,95905.16
2019-06-26T12:53:17.011Z,95904.17
2019-06-26T12:55:48.102Z,95907.56
2019-06-26T12:58:20.151Z,95901.96
2019-06-26T13:00:51.512Z,95899.73
2019-06-26T13:03:22.735Z,95903.22
2019-06-26T13:05:53.792Z,95899.57
2019-06-26T13:08:24.947Z,95900.90
2019-06-26T13:10:56.150Z,95898.65
2019-06-26T13:13:27.199Z,95892.70
2019-06-26T13:15:58.315Z,95898.02
2019-06-26T13:18:29.376Z,95896.88
2019-06-26T13:21:00.596Z,95890.49
2019-06-26T13:23:31.733Z,95893.78
2019-06-26T13:26:03.977Z,95896.59
2019-06-26T13:28:35.087Z,95892.11
2019-06-26T13:31:07.254Z,95891.58
2019-06-26T13:33:38.694Z,95887.30
2019-06-26T13:36:09.849Z,95893.78
2019-06-26T13:38:40.903Z,95895.81
2019-06-26T13:41:12.111Z,95892.07
2019-06-26T13:43:43.273Z,95877.18
2019-06-26T13:46:14.445Z,95883.16
2019-06-26T13:48:46.046Z,95889.77
2019-06-26T13:51:17.227Z,95892.80
2019-06-26T13:53:48.352Z,95887.30
2019-06-26T13:56:19.420Z,95897.50
2019-06-26T13:58:51.481Z,95887.33
2019-06-26T14:01:23.314Z,95892.37
2019-06-26T14:03:54.411Z,95883.69
2019-06-26T14:06:25.637Z,95885.98
2019-06-26T14:08:56.794Z,95879.77
2019-06-26T14:11:28.120Z,95879.87
2019-06-26T14:13:59.186Z,95876.52
2019-06-26T14:16:30.288Z,95883.07
2019-06-26T14:19:02.421Z,95881.84
2019-06-26T14:21:33.677Z,95874.44
2019-06-26T14:24:04.877Z,95872.75
2019-06-26T14:26:35.996Z,95876.06
2019-06-26T14:29:20.390Z,95881.41
2019-06-26T14:31:40.354Z,95879.73
2019-06-26T14:34:11.419Z,95874.92
2019-06-26T14:36:42.650Z,95878.09
2019-06-26T14:39:13.694Z,95877.06
2019-06-26T14:41:44.790Z,95866.64
2019-06-26T14:44:15.837Z,95872.20
2019-06-26T14:46:46.923Z,95869.50
2019-06-26T14:49:18.050Z,95873.26
2019-06-26T14:51:49.326Z,95876.68
2019-06-26T14:54:20.373Z,95873.78
2019-06-26T14:56:51.513Z,95856.86
2019-06-26T14:59:22.707Z,95866.30
2019-06-26T15:01:53.895Z,95868.97
2019-06-26T15:04:25.020Z,95851.97
2019-06-26T15:06:56.117Z,95855.84
2019-06-26T15:09:27.228Z,95848.86
2019-06-26T15:11:58.591Z,95853.08
2019-06-26T15:14:29.647Z,95848.28
2019-06-26T15:17:00.795Z,95849.52
2019-06-26T15:19:31.954Z,95849.91
2019-06-26T15:22:03.022Z,95847.84
2019-06-26T15:24:34.060Z,95846.84
2019-06-26T15:27:05.240Z,95841.66
2019-06-26T15:29:36.309Z,95843.83
2019-06-26T15:32:07.443Z,95836.99
2019-06-26T15:34:38.515Z,95836.44
2019-06-26T15:37:09.571Z,95827.35
2019-06-26T15:39:40.723Z,95830.84
2019-06-26T15:42:11.914Z,95828.48
2019-06-26T15:44:43.070Z,95823.64
2019-06-26T15:47:14.257Z,95820.09
2019-06-26T15:49:46.441Z,95816.33
2019-06-26T15:52:17.753Z,95820.23
2019-06-26T15:54:48.902Z,95818.65
2019-06-26T15:57:19.980Z,95818.28
2019-06-26T15:59:51.049Z,95810.33
2019-06-26T16:02:22.129Z,95810.12
2019-06-26T16:04:53.225Z,95811.61
2019-06-26T16:07:24.286Z,95814.93
2019-06-26T16:09:55.343Z,95815.06
2019-06-26T16:12:26.451Z,95814.08
2019-06-26T16:14:57.687Z,95804.74
2019-06-26T16:17:35.818Z,95810.03
2019-06-26T16:20:07.693Z,95812.33
2019-06-26T16:22:39.348Z,95806.71
2019-06-26T16:25:14.446Z,95809.70
2019-06-26T16:27:44.968Z,95814.84
2019-06-26T16:30:16.760Z,95815.72
2019-06-26T16:32:47.862Z,95810.56
2019-06-26T16:35:19.130Z,95808.13
2019-06-26T16:37:50.306Z,95809.56
2019-06-26T16:40:21.718Z,95804.80
2019-06-26T16:42:52.854Z,95815.67
2019-06-26T16:45:24.372Z,95801.28
2019-06-26T16:47:55.628Z,95809.94
2019-06-26T16:50:27.048Z,95810.88
2019-06-26T16:52:58.067Z,95807.34
2019-06-26T16:55:29.210Z,95808.84
2019-06-26T16:58:01.638Z,95802.37
2019-06-26T17:00:33.011Z,95802.41
2019-06-26T17:03:04.551Z,95800.73
2019-06-26T17:05:35.942Z,95799.41
2019-06-26T17:08:09.084Z,95802.20
2019-06-26T17:10:40.380Z,95801.77
2019-06-26T17:13:11.722Z,95811.69
2019-06-26T17:15:42.782Z,95801.58
2019-06-26T17:18:13.934Z,95807.80
2019-06-26T17:20:45.153Z,95803.45
2019-06-26T17:23:16.228Z,95797.99
2019-06-26T17:25:47.402Z,95807.20
2019-06-26T17:28:18.649Z,95810.30
2019-06-26T17:30:52.746Z,95815.08
2019-06-26T17:33:23.653Z,95813.94
2019-06-26T17:35:54.691Z,95818.27
2019-06-26T17:38:25.838Z,95811.95
2019-06-26T17:40:59.431Z,95808.69
2019-06-26T17:43:29.935Z,95809.73
2019-06-26T17:46:01.007Z,95808.28
2019-06-26T17:48:32.498Z,95814.89
2019-06-26T17:51:03.669Z,95803.20
2019-06-26T17:53:34.861Z,95803.77
2019-06-26T17:56:06.311Z,95807.94
2019-06-26T17:58:37.359Z,95812.88
2019-06-26T18:01:08.409Z,95809.05
2019-06-26T18:03:39.515Z,95809.11
2019-06-26T18:06:10.669Z,95808.08
2019-06-26T18:08:43.009Z,95816.29
2019-06-26T18:11:14.056Z,95812.00
2019-06-26T18:13:45.171Z,95821.39
2019-06-26T18:16:17.381Z,95822.42
2019-06-26T18:18:49.530Z,95821.83
2019-06-26T18:21:20.617Z,95814.41
2019-06-26T18:23:51.744Z,95815.38
2019-06-26T18:26:22.893Z,95817.75
2019-06-26T18:28:54.012Z,95820.30
2019-06-26T18:31:25.136Z,95822.11
2019-06-26T18:33:56.335Z,95818.66
2019-06-26T18:36:27.633Z,95814.35
2019-06-26T18:38:58.751Z,95813.17
2019-06-26T18:41:29.950Z,95815.76
2019-06-26T18:44:01.158Z,95818.63
2019-06-26T18:46:32.209Z,95822.81
2019-06-26T18:49:03.342Z,95827.22
2019-06-26T18:51:34.370Z,95820.36
2019-06-26T18:54:05.842Z,95828.04
2019-06-26T18:56:36.960Z,95835.39
2019-06-26T18:59:08.065Z,95831.74
2019-06-26T19:01:39.248Z,95839.13
2019-06-26T19:04:11.510Z,95834.99
2019-06-26T19:06:42.676Z,95844.33
2019-06-26T19:09:13.842Z,95838.56
2019-06-26T19:11:45.043Z,95838.66
2019-06-26T19:14:16.257Z,95843.45
2019-06-26T19:16:47.494Z,95843.78
2019-06-26T19:19:18.596Z,95844.17
2019-06-26T19:21:49.869Z,95844.30
2019-06-26T19:24:20.941Z,95847.33
2019-06-26T19:26:52.078Z,95844.14
2019-06-26T19:29:23.176Z,95850.98
2019-06-26T19:31:54.298Z,95855.41
2019-06-26T19:34:25.918Z,95856.55
2019-06-26T19:36:56.998Z,95859.78
2019-06-26T19:39:28.332Z,95857.40
2019-06-26T19:41:59.603Z,95856.27
2019-06-26T19:44:30.716Z,95862.81
2019-06-26T19:47:01.781Z,95861.44
2019-06-26T19:49:33.219Z,95865.73
2019-06-26T19:52:04.439Z,95866.22
2019-06-26T19:54:39.222Z,95864.49
2019-06-26T19:57:10.229Z,95864.45
2019-06-26T19:59:41.387Z,95871.94
2019-06-26T20:02:12.563Z,95871.74
2019-06-26T20:04:43.805Z,95872.09
2019-06-26T20:07:15.022Z,95871.98
2019-06-26T20:09:46.471Z,95871.39
2019-06-26T20:12:17.560Z,95864.80
2019-06-26T20:14:48.650Z,95871.91
2019-06-26T20:17:19.842Z,95862.59
2019-06-26T20:19:50.920Z,95868.87
2019-06-26T20:22:22.127Z,95872.37
2019-06-26T20:24:57.284Z,95870.52
2019-06-26T20:27:27.211Z,95866.31
2019-06-26T20:29:58.380Z,95858.86
2019-06-26T20:32:29.439Z,95867.03
2019-06-26T20:35:00.522Z,95858.86
2019-06-26T20:37:31.599Z,95864.91
2019-06-26T20:40:02.831Z,95863.66
2019-06-26T20:42:33.934Z,95867.26
2019-06-26T20:45:05.213Z,95858.19
2019-06-26T20:47:36.324Z,95860.04
2019-06-26T20:50:08.210Z,95869.34
2019-06-26T20:52:39.351Z,95868.52
2019-06-26T20:55:10.538Z,95858.75
2019-06-26T20:57:41.585Z,95869.91
2019-06-26T21:00:13.134Z,95859.64
2019-06-26T21:02:44.334Z,95862.53
2019-06-26T21:05:15.882Z,95859.86
2019-06-26T21:07:46.916Z,95864.05
2019-06-26T21:10:18.148Z,95858.58
2019-06-26T21:12:49.217Z,95866.03
2019-06-26T21:15:21.531Z,95865.53
2019-06-26T21:17:52.719Z,95865.19
2019-06-26T21:20:23.828Z,95865.80
2019-06-26T21:22:54.955Z,95869.39
2019-06-26T21:25:26.105Z,95867.95
2019-06-26T21:27:57.368Z,95868.78
2019-06-26T21:30:28.488Z,95863.52
2019-06-26T21:32:59.647Z,95867.70
2019-06-26T21:35:31.908Z,95866.53
2019-06-26T21:38:02.956Z,95865.50
2019-06-26T21:40:34.020Z,95872.47
2019-06-26T21:43:05.165Z,95870.80
2019-06-26T21:45:36.285Z,95863.05
2019-06-26T21:48:07.450Z,95869.37
2019-06-26T21:50:38.677Z,95869.79
2019-06-26T21:53:09.786Z,95871.67
2019-06-26T21:55:43.109Z,95877.47
2019-06-26T21:58:31.701Z,95875.47
2019-06-26T22:01:20.759Z,95876.67
2019-06-26T22:04:09.767Z,95877.72
2019-06-26T22:06:48.143Z,95881.44
2019-06-26T22:09:20.883Z,95876.84
2019-06-26T22:11:52.078Z,95868.06
2019-06-26T22:14:23.330Z,95865.61
2019-06-26T22:16:54.713Z,95864.56
2019-06-26T22:19:26.102Z,95869.29
2019-06-26T22:21:57.244Z,95872.61
2019-06-26T22:24:28.392Z,95865.84
2019-06-26T22:26:59.585Z,95856.35
2019-06-26T22:29:30.737Z,95872.34
2019-06-26T22:32:01.959Z,95870.84
2019-06-26T22:34:33.173Z,95866.09
2019-06-26T22:37:04.791Z,95874.91
2019-06-26T22:39:35.847Z,95873.55
2019-06-26T22:42:10.073Z,95870.16
2019-06-26T22:44:41.124Z,95873.43
2019-06-26T22:47:12.280Z,95868.16
2019-06-26T22:49:43.410Z,95860.88
2019-06-26T22:52:14.532Z,95871.33
2019-06-26T22:54:45.599Z,95865.64
2019-06-26T22:57:16.657Z,95870.58
2019-06-26T22:59:47.836Z,95866.39
2019-06-26T23:02:19.007Z,95866.52
2019-06-26T23:04:50.134Z,95866.36
2019-06-26T23:07:21.245Z,95859.47
2019-06-26T23:09:52.302Z,95867.64
2019-06-26T23:12:23.384Z,95866.98
2019-06-26T23:14:54.486Z,95867.50
2019-06-26T23:17:25.735Z,95865.95
2019-06-26T23:19:56.797Z,95865.64
2019-06-26T23:22:28.052Z,95869.29
2019-06-26T23:24:59.184Z,95864.40
2019-06-26T23:27:30.433Z,95859.66
2019-06-26T23:30:01.473Z,95860.77
2019-06-26T23:32:33.723Z,95860.94
2019-06-26T23:35:05.220Z,95861.73
2019-06-26T23:37:36.298Z,95859.28
2019-06-26T23:40:08.790Z,95863.13
2019-06-26T23:42:39.961Z,95859.05
2019-06-26T23:45:11.514Z,95859.12
2019-06-26T23:47:42.628Z,95856.90
2019-06-26T23:50:14.118Z,95856.03
2019-06-26T23:52:45.328Z,95851.34
2019-06-26T23:55:16.592Z,95856.72
2019-06-26T23:57:59.003Z,95845.20
